Govans, Maryland
Current Conditions -  °F | °C
As of 5:45 PM on Wednesday 22 Oct 2014 (Local Time) from KMTN Reporting Station
Overcast Overcast  
Wind Chill: 13°   Ceiling: 3300
Heat Index: 13°   Visibility: 10mi
Dew Point: 11°   Wind: 8mph
Humidity: 88%   Direction: 310°NW
Pressure: 29.9"   Gusts: 22mph
Location:  39.3674°N, 76.6149°W
Report Text: KMTN 222145Z 31007G19KT 10SM BKN033 OVC150 13/11 A2990
Loading
Personal Weather Stations






























Interactive Weather Map
Tropical Storm Tracking
New forecast layout! Learn more

10-Day Weather Forecast

Advertisements
Track Severe Weather on mobile